Terminal Aerodrome Forecast
Issued by NWS Greer, SC

Home | Current Version | Previous Version | Text Only | Print | Product List | Glossary On
Versions: 1 2 3 4 5 6 7 8 9 10 11 12 13 14 15 16 17 18 19 20 21
554
FTUS42 KGSP 230526
TAFGSP
TAF
KGSP 230526Z 2306/2406 20003KT 5SM -SHRA BR OVC008
     FM230900 VRB03KT 3SM SHRA BR OVC003
     FM231600 VRB05KT 3SM -SHRA OVC008 PROB30 2316/2320 2SM TSRA BR
      OVC003CB
     FM232300 VRB03KT P6SM -SHRA OVC015
     FM240200 07004KT 4SM BR VCSH OVC008
     FM240400 05004KT 5SM BR OVC003=

USA.gov is the U.S. government's official web portal to all federal, state and local government web resources and services.